createdAt,value
2019-05-25T00:00:02.076Z,11.56
2019-05-25T00:05:01.258Z,11.46
2019-05-25T00:10:01.414Z,11.38
2019-05-25T00:15:01.577Z,11.27
2019-05-25T00:20:01.930Z,11.23
2019-05-25T00:25:02.100Z,11.12
2019-05-25T00:30:01.232Z,11.03
2019-05-25T00:35:01.347Z,10.94
2019-05-25T00:40:01.486Z,10.87
2019-05-25T00:45:01.834Z,10.78
2019-05-25T00:50:01.987Z,10.69
2019-05-25T00:55:01.093Z,10.59
2019-05-25T01:00:01.352Z,10.5
2019-05-25T01:05:01.585Z,10.4
2019-05-25T01:10:01.797Z,10.34
2019-05-25T01:15:02.087Z,10.28
2019-05-25T01:20:01.235Z,10.26
2019-05-25T01:25:01.570Z,10.22
2019-05-25T01:30:01.811Z,10.13
2019-05-25T01:35:01.848Z,10.06
2019-05-25T01:40:01.999Z,9.99
2019-05-25T01:45:01.159Z,9.92
2019-05-25T01:50:01.281Z,9.85
2019-05-25T01:55:01.417Z,9.75
2019-05-25T02:00:01.557Z,9.64
2019-05-25T02:05:01.746Z,9.61
2019-05-25T02:10:01.879Z,9.54
2019-05-25T02:15:02.050Z,9.47
2019-05-25T02:20:01.222Z,9.39
2019-05-25T02:25:16.407Z,9.31
2019-05-25T02:30:02.246Z,9.25
2019-05-25T02:35:01.452Z,9.18
2019-05-25T02:40:01.364Z,9.11
2019-05-25T02:45:01.570Z,9.05
2019-05-25T02:50:01.716Z,8.96
2019-05-25T02:55:01.227Z,8.87
2019-05-25T03:00:01.358Z,8.81
2019-05-25T03:05:01.539Z,8.73
2019-05-25T03:10:01.646Z,8.64
2019-05-25T03:15:01.907Z,8.55
2019-05-25T03:20:02.096Z,8.52
2019-05-25T03:25:01.230Z,8.48
2019-05-25T03:30:01.365Z,8.45
2019-05-25T03:35:01.516Z,8.41
2019-05-25T03:40:01.685Z,8.35
2019-05-25T03:45:01.814Z,8.31
2019-05-25T03:50:01.970Z,8.34
2019-05-25T03:55:01.131Z,8.34
2019-05-25T04:00:01.281Z,8.33
2019-05-25T04:05:01.462Z,8.35
2019-05-25T04:10:02.004Z,8.32
2019-05-25T04:15:01.160Z,8.29
2019-05-25T04:20:01.323Z,8.28
2019-05-25T04:25:01.458Z,8.27
2019-05-25T04:30:01.594Z,8.29
2019-05-25T04:35:01.887Z,8.34
2019-05-25T04:40:01.562Z,8.42
2019-05-25T04:45:01.699Z,8.63
2019-05-25T04:50:01.838Z,8.95
2019-05-25T04:55:01.249Z,9.37
2019-05-25T05:00:01.389Z,10.01
2019-05-25T05:05:01.550Z,10.78
2019-05-25T05:10:03.097Z,11.53
2019-05-25T05:15:01.566Z,12.36
2019-05-25T05:20:01.734Z,13.11
2019-05-25T05:25:01.996Z,13.66
2019-05-25T05:30:01.132Z,13.97
2019-05-25T05:35:01.285Z,13.35
2019-05-25T05:40:01.522Z,13.04
2019-05-25T05:45:01.662Z,13.21
2019-05-25T05:50:01.753Z,13.15
2019-05-25T05:55:01.969Z,13.17
2019-05-25T06:00:02.177Z,13.27
2019-05-25T06:05:01.444Z,14.22
2019-05-25T06:10:01.623Z,14.17
2019-05-25T06:15:01.755Z,13.85
2019-05-25T06:20:01.914Z,13.55
2019-05-25T06:25:02.062Z,14.66
2019-05-25T06:30:01.194Z,14.92
2019-05-25T06:35:01.367Z,15.3
2019-05-25T06:40:01.596Z,15.55
2019-05-25T06:45:01.739Z,15.14
2019-05-25T06:50:01.872Z,14.98
2019-05-25T06:55:02.017Z,14.49
2019-05-25T07:00:01.184Z,14.39
2019-05-25T07:05:01.347Z,14.83
2019-05-25T07:10:01.561Z,15.23
2019-05-25T07:15:01.711Z,15.65
2019-05-25T07:20:01.970Z,14.68
2019-05-25T07:25:02.141Z,15.27
2019-05-25T07:30:01.266Z,16.42
2019-05-25T07:35:01.388Z,15.1
2019-05-25T07:40:01.515Z,15.04
2019-05-25T07:45:01.651Z,15.84
2019-05-25T07:50:01.807Z,15.53
2019-05-25T07:55:01.944Z,14.99
2019-05-25T08:00:02.068Z,14.83
2019-05-25T08:05:01.227Z,14.07
2019-05-25T08:10:01.355Z,14.59
2019-05-25T08:15:01.522Z,15.48
2019-05-25T08:20:01.728Z,15.33
2019-05-25T08:25:01.838Z,15.36
2019-05-25T08:30:01.964Z,15.83
2019-05-25T08:35:01.124Z,15.88
2019-05-25T08:40:01.314Z,14.93
2019-05-25T08:45:01.442Z,15.15
2019-05-25T08:50:01.572Z,16.1
2019-05-25T08:55:01.701Z,16.06
2019-05-25T09:00:01.930Z,16.03
2019-05-25T09:05:02.048Z,15.86
2019-05-25T09:10:01.176Z,15.91
2019-05-25T09:15:01.304Z,15.76
2019-05-25T09:20:01.501Z,16.34
2019-05-25T09:25:01.596Z,17.2
2019-05-25T09:30:01.707Z,16.24
2019-05-25T09:35:01.869Z,15.83
2019-05-25T09:40:02.057Z,16.57
2019-05-25T09:45:01.193Z,16.82
2019-05-25T09:50:01.689Z,16.55
2019-05-25T09:55:01.873Z,16.16
2019-05-25T10:00:02.062Z,17.58
2019-05-25T10:05:01.216Z,17.8
2019-05-25T10:10:01.348Z,16.57
2019-05-25T10:15:01.479Z,16.86
2019-05-25T10:20:01.646Z,17.3
2019-05-25T10:25:01.783Z,17
2019-05-25T10:30:01.917Z,16.75
2019-05-25T10:35:02.093Z,16.43
2019-05-25T10:40:01.230Z,16.92
2019-05-25T10:45:01.359Z,16.73
2019-05-25T10:50:01.491Z,16.56
2019-05-25T10:55:02.095Z,16.54
2019-05-25T11:00:01.302Z,16.36
2019-05-25T11:05:01.472Z,16.49
2019-05-25T11:10:01.607Z,16.84
2019-05-25T11:15:01.764Z,16.93
2019-05-25T11:20:01.902Z,17.55
2019-05-25T11:25:02.013Z,17.64
2019-05-25T11:30:09.115Z,17.25
2019-05-25T11:35:01.930Z,17.46
2019-05-25T11:40:02.090Z,17.62
2019-05-25T11:45:01.219Z,17.77
2019-05-25T11:50:01.347Z,17.38
2019-05-25T11:55:01.536Z,17.84
2019-05-25T12:00:01.681Z,17.58
2019-05-25T12:05:01.800Z,17.4
2019-05-25T12:10:02.098Z,17.67
2019-05-25T12:15:01.431Z,17.97
2019-05-25T12:20:01.581Z,17.81
2019-05-25T12:25:01.694Z,17.72
2019-05-25T12:30:01.828Z,17.81
2019-05-25T12:35:02.044Z,18
2019-05-25T12:40:01.174Z,17.79
2019-05-25T12:45:01.348Z,17.44
2019-05-25T12:50:01.470Z,17.77
2019-05-25T12:55:01.625Z,17.69
2019-05-25T13:00:15.065Z,17.94
2019-05-25T13:05:01.435Z,18.08
2019-05-25T13:10:01.578Z,18.21
2019-05-25T13:15:01.700Z,18.07
2019-05-25T13:20:01.890Z,18.2
2019-05-25T13:25:01.197Z,18.24
2019-05-25T13:30:03.348Z,18.32
2019-05-25T13:35:01.755Z,18.63
2019-05-25T13:40:01.916Z,18.71
2019-05-25T13:45:02.054Z,18.83
2019-05-25T13:50:01.255Z,18.96
2019-05-25T13:55:01.391Z,18.54
2019-05-25T14:00:01.549Z,18.52
2019-05-25T14:05:01.682Z,18.71
2019-05-25T14:10:01.843Z,18.7
2019-05-25T14:15:02.297Z,18.82
2019-05-25T14:20:01.586Z,18.95
2019-05-25T14:25:01.815Z,19
2019-05-25T14:30:02.033Z,19.13
2019-05-25T14:35:01.219Z,18.61
2019-05-25T14:40:01.308Z,18.78
2019-05-25T14:45:01.630Z,18.77
2019-05-25T14:50:01.812Z,18.93
2019-05-25T14:55:02.079Z,19.12
2019-05-25T15:00:01.246Z,19.05
2019-05-25T15:05:01.362Z,19.35
2019-05-25T15:10:01.492Z,19.15
2019-05-25T15:15:01.616Z,19.25
2019-05-25T15:20:01.761Z,19.27
2019-05-25T15:25:01.891Z,19.05
2019-05-25T15:30:02.023Z,19.26
2019-05-25T15:35:01.202Z,19.23
2019-05-25T15:40:01.306Z,19.44
2019-05-25T15:45:01.405Z,19.52
2019-05-25T15:50:01.554Z,19.21
2019-05-25T15:55:01.725Z,19.26
2019-05-25T16:00:01.910Z,19.21
2019-05-25T16:05:02.016Z,19.36
2019-05-25T16:10:01.147Z,19.47
2019-05-25T16:15:01.323Z,19.41
2019-05-25T16:20:01.492Z,19.45
2019-05-25T16:25:01.624Z,19.41
2019-05-25T16:30:01.737Z,19.53
2019-05-25T16:35:01.998Z,19.41
2019-05-25T16:40:01.240Z,19.25
2019-05-25T16:45:05.352Z,19.12
2019-05-25T16:50:02.012Z,19.09
2019-05-25T16:55:01.232Z,18.91
2019-05-25T17:00:01.380Z,18.96
2019-05-25T17:05:01.532Z,18.83
2019-05-25T17:10:01.666Z,18.58
2019-05-25T17:15:01.821Z,18.22
2019-05-25T17:20:01.958Z,17.93
2019-05-25T17:25:02.056Z,17.62
2019-05-25T17:30:01.192Z,17.36
2019-05-25T17:35:01.334Z,17.18
2019-05-25T17:40:01.490Z,16.96
2019-05-25T17:45:01.644Z,16.72
2019-05-25T17:50:01.792Z,16.58
2019-05-25T17:55:01.945Z,16.55
2019-05-25T18:00:02.086Z,16.52
2019-05-25T18:05:01.244Z,16.46
2019-05-25T18:10:01.374Z,16.37
2019-05-25T18:15:01.561Z,16.3
2019-05-25T18:20:01.705Z,16.22
2019-05-25T18:25:01.811Z,16.17
2019-05-25T18:30:01.949Z,16.14
2019-05-25T18:35:01.183Z,16.1
2019-05-25T18:40:01.330Z,16.07
2019-05-25T18:45:01.491Z,16.11
2019-05-25T18:50:01.678Z,16.04
2019-05-25T18:55:01.832Z,16.03
2019-05-25T19:00:01.965Z,15.99
2019-05-25T19:05:01.124Z,15.96
2019-05-25T19:10:01.251Z,15.96
2019-05-25T19:15:01.446Z,15.91
2019-05-25T19:20:01.615Z,15.82
2019-05-25T19:25:01.742Z,15.7
2019-05-25T19:30:01.881Z,15.63
2019-05-25T19:35:02.070Z,15.52
2019-05-25T19:40:07.891Z,15.31
2019-05-25T19:45:01.161Z,15.23
2019-05-25T19:50:04.864Z,15.1
2019-05-25T19:55:01.504Z,15.01
2019-05-25T20:00:01.731Z,14.92
2019-05-25T20:05:15.176Z,14.82
2019-05-25T20:10:01.778Z,14.72
2019-05-25T20:15:01.179Z,14.54
2019-05-25T20:20:01.320Z,14.42
2019-05-25T20:25:01.467Z,14.26
2019-05-25T20:30:01.600Z,14.09
2019-05-25T20:35:01.751Z,13.89
2019-05-25T20:40:01.997Z,13.73
2019-05-25T20:45:01.246Z,13.53
2019-05-25T20:50:01.467Z,13.43
2019-05-25T20:55:01.652Z,13.29
2019-05-25T21:00:01.780Z,13.19
2019-05-25T21:05:01.903Z,13.06
2019-05-25T21:10:02.067Z,12.97
2019-05-25T21:15:01.237Z,12.9
2019-05-25T21:20:01.342Z,12.79
2019-05-25T21:25:05.749Z,12.81
2019-05-25T21:30:01.348Z,12.86
2019-05-25T21:35:01.519Z,12.8
2019-05-25T21:40:01.630Z,12.72
2019-05-25T21:45:01.764Z,12.62
2019-05-25T21:50:01.881Z,12.53
2019-05-25T21:55:02.035Z,12.44
2019-05-25T22:00:01.227Z,12.38
2019-05-25T22:05:01.411Z,12.25
2019-05-25T22:10:01.643Z,12.17
2019-05-25T22:15:01.848Z,12.11
2019-05-25T22:20:01.985Z,12.01
2019-05-25T22:25:02.081Z,11.94
2019-05-25T22:30:01.212Z,11.9
2019-05-25T22:35:01.391Z,11.82
2019-05-25T22:40:01.538Z,11.77
2019-05-25T22:45:01.725Z,11.74
2019-05-25T22:50:01.865Z,11.7
2019-05-25T22:55:02.252Z,11.66
2019-05-25T23:00:01.488Z,11.68
2019-05-25T23:05:01.594Z,11.57
2019-05-25T23:10:01.718Z,11.53
2019-05-25T23:15:01.869Z,11.54
2019-05-25T23:20:02.043Z,11.55
2019-05-25T23:25:01.251Z,11.61
2019-05-25T23:30:01.381Z,11.59
2019-05-25T23:35:01.551Z,11.59
2019-05-25T23:40:01.652Z,11.56
2019-05-25T23:45:01.784Z,11.51
2019-05-25T23:50:01.942Z,11.47
2019-05-25T23:55:04.951Z,11.43
